PAUN/UNK METAR and TAF weather

Enter ICAO airport designator
Station Type Date Time Source
PAUN METAR 2019/02/17 06:56 UTC NOAA

PAUN 170656Z AUTO 07018KT 10SM CLR M06/M08 A3007 RMK AO2 PK WND 07027/0616 SLP186 T10611083 FZRANO


Station Type Date Time Source
PAUN Decoded METAR 2019/02/17 06:56 UTC NOAA

Unalakleet, AK, United States (PAUN) 63-53N 160-48W 6M
Feb 17, 2019 - 01:56 AM EST / 2019.02.17 0656 UTC
Wind: from the ENE (070 degrees) at 21 MPH (18 KT):0
Visibility: 10 mile(s):0
Sky conditions: clear
Temperature: 21.0 F (-6.1 C)
Windchill: 5 F (-15 C):1
Dew Point: 17.1 F (-8.3 C)
Relative Humidity: 84%
Pressure (altimeter): 30.07 in. Hg (1018 hPa)
ob: PAUN 170656Z AUTO 07018KT 10SM CLR M06/M08 A3007 RMK AO2 PK WND 07027/0616 SLP186 T10611083 FZRANO
cycle: 7

Station Type Date Time Source
PAUN TAF 2019/02/17 06:40 UTC NOAA

TAF PAUN 170538Z 1706/1806 07015KT P6SM SKC
FM171200 08019KT 6SM -SN BR SCT025 OVC050
FM171500 10023G29KT 2SM -SN BR SCT015 OVC025
FM180300 22012KT 5SM -SHSN BR SCT007 OVC025


Example: see airport list